Weather Data

Pearl Creek Farm: 8878 N Farm Road 75, Walnut Grove MO 65770

<== Previous Day (Thursday 03 Mar 2011) | Next Day (Saturday 05 Mar 2011) ==>

Summary Precipitation Data For Friday 04 March 2011

ElementValueUnits
Precipitation0"
Notes(none)
SourcePearl Creek Farm

Summary Temperature Data For Friday 04 March 2011

ElementValueUnits
High Temperature68 oF
Low Temperature39 oF
Average Temperature54 oF
High Humidity100 %
Low Humidity57 %
Average Humidity79 %
SourceSpringfield-Branson National Airport (SGF)

Detail Temperature Data For Friday 04 March 2011

Date / TimeTemp (F)RH (%)Dew Pt (F)Report Date / TimeSource
2011-03-04 16:52:00 62 80 56.0 2017-12-29 17:00:26.17417 Springfield-Branson National Airport (SGF)
2011-03-04 17:52:00 54 97 53.0 2017-12-29 17:00:26.17417 Springfield-Branson National Airport (SGF)
2011-03-04 18:51:00 49 100 49.0 2017-12-29 17:00:26.17417 Springfield-Branson National Airport (SGF)
2011-03-04 19:52:00 46 100 46.0 2017-12-29 17:00:26.17417 Springfield-Branson National Airport (SGF)
2011-03-04 20:52:00 45 100 45.0 2017-12-29 17:00:26.17417 Springfield-Branson National Airport (SGF)
2011-03-04 21:52:00 44 100 44.0 2017-12-29 17:00:26.17417 Springfield-Branson National Airport (SGF)
2011-03-04 22:52:00 42 100 42.0 2017-12-29 17:00:26.17417 Springfield-Branson National Airport (SGF)
2011-03-04 23:52:00 39 100 39.0 2017-12-29 17:00:26.17417 Springfield-Branson National Airport (SGF)
2011-03-04 12:52:00 68 57 52.0 2017-12-29 17:00:26.17417 Springfield-Branson National Airport (SGF)
2011-03-04 13:52:00 68 59 53.0 2017-12-29 17:00:26.17417 Springfield-Branson National Airport (SGF)
2011-03-04 14:52:00 66 61 52.0 2017-12-29 17:00:26.17417 Springfield-Branson National Airport (SGF)
2011-03-04 15:52:00 65 68 54.0 2017-12-29 17:00:26.17417 Springfield-Branson National Airport (SGF)
2011-03-04 00:52:00 51 77 44.0 2017-12-29 17:00:26.17417 Springfield-Branson National Airport (SGF)
2011-03-04 01:52:00 52 75 44.0 2017-12-29 17:00:26.17417 Springfield-Branson National Airport (SGF)
2011-03-04 02:52:00 50 77 43.0 2017-12-29 17:00:26.17417 Springfield-Branson National Airport (SGF)
2011-03-04 03:52:00 49 80 43.0 2017-12-29 17:00:26.17417 Springfield-Branson National Airport (SGF)
2011-03-04 04:52:00 49 80 43.0 2017-12-29 17:00:26.17417 Springfield-Branson National Airport (SGF)
2011-03-04 05:52:00 49 80 43.0 2017-12-29 17:00:26.17417 Springfield-Branson National Airport (SGF)
2011-03-04 06:52:00 50 77 43.0 2017-12-29 17:00:26.17417 Springfield-Branson National Airport (SGF)
2011-03-04 07:52:00 53 72 44.0 2017-12-29 17:00:26.17417 Springfield-Branson National Airport (SGF)
2011-03-04 08:52:00 57 69 47.0 2017-12-29 17:00:26.17417 Springfield-Branson National Airport (SGF)
2011-03-04 09:52:00 61 65 49.0 2017-12-29 17:00:26.17417 Springfield-Branson National Airport (SGF)
2011-03-04 10:52:00 65 61 51.0 2017-12-29 17:00:26.17417 Springfield-Branson National Airport (SGF)
2011-03-04 11:52:00 67 59 52.0 2017-12-29 17:00:26.17417 Springfield-Branson National Airport (SGF)

A total of 24 rows are displayed.